createdAt,value
2017-11-01T00:00:24.105Z,1011.3
2017-11-01T00:01:26.490Z,1011.3
2017-11-01T00:02:29.217Z,1011.3
2017-11-01T00:03:31.592Z,1011.3
2017-11-01T00:04:33.971Z,1011.3
2017-11-01T00:05:36.356Z,1011.3
2017-11-01T00:06:38.738Z,1011.3
2017-11-01T00:07:41.130Z,1011.3
2017-11-01T00:08:43.496Z,1011.3
2017-11-01T00:09:45.870Z,1011.3
2017-11-01T00:10:48.244Z,1011.3
2017-11-01T00:11:50.621Z,1011.3
2017-11-01T00:12:52.994Z,1011.3
2017-11-01T00:13:55.377Z,1011.2
2017-11-01T00:14:58.102Z,1011.2
2017-11-01T00:16:00.476Z,1011.3
2017-11-01T00:17:02.855Z,1011.3
2017-11-01T00:18:05.267Z,1011.3
2017-11-01T00:19:07.652Z,1011.3
2017-11-01T00:20:10.044Z,1011.1
2017-11-01T00:21:12.768Z,1011.2
2017-11-01T00:22:15.144Z,1011.2
2017-11-01T00:23:17.524Z,1011.1
2017-11-01T00:24:19.916Z,1011.1
2017-11-01T00:25:22.299Z,1011.2
2017-11-01T00:26:24.692Z,1011.2
2017-11-01T00:27:27.066Z,1011.1
2017-11-01T00:28:29.434Z,1011.1
2017-11-01T00:29:31.807Z,1011.1
2017-11-01T00:30:34.599Z,1011.1
2017-11-01T00:31:39.658Z,1011.1
2017-11-01T00:32:53.631Z,1011
2017-11-01T00:34:03.671Z,1011
2017-11-01T00:35:23.289Z,1011
2017-11-01T00:36:44.660Z,1011
2017-11-01T00:37:56.906Z,1011
2017-11-01T00:39:02.823Z,1011
2017-11-01T00:40:12.521Z,1011
2017-11-01T00:41:25.520Z,1011
2017-11-01T00:42:38.309Z,1010.9
2017-11-01T00:43:49.890Z,1011
2017-11-01T00:45:02.489Z,1011
2017-11-01T00:46:20.303Z,1010.9
2017-11-01T00:47:29.065Z,1010.9
2017-11-01T00:48:38.736Z,1010.9
2017-11-01T00:49:54.686Z,1010.8
2017-11-01T00:51:10.872Z,1010.9
2017-11-01T00:52:24.808Z,1010.8
2017-11-01T00:53:39.953Z,1010.9
2017-11-01T00:54:55.152Z,1010.8
2017-11-01T00:56:04.090Z,1010.8
2017-11-01T00:57:27.796Z,1010.8
2017-11-01T00:58:41.235Z,1010.7
2017-11-01T00:59:52.765Z,1010.8
2017-11-01T01:00:59.737Z,1010.8
2017-11-01T01:02:02.462Z,1010.8
2017-11-01T01:03:05.239Z,1010.8
2017-11-01T01:04:07.607Z,1010.8
2017-11-01T01:05:09.989Z,1010.8
2017-11-01T01:06:12.361Z,1010.7
2017-11-01T01:07:14.733Z,1010.7
2017-11-01T01:08:17.110Z,1010.7
2017-11-01T01:09:19.486Z,1010.7
2017-11-01T01:10:21.858Z,1010.7
2017-11-01T01:11:24.240Z,1010.7
2017-11-01T01:12:26.615Z,1010.7
2017-11-01T01:13:28.982Z,1010.7
2017-11-01T01:14:31.364Z,1010.7
2017-11-01T01:15:33.754Z,1010.7
2017-11-01T01:16:36.123Z,1010.6
2017-11-01T01:17:38.497Z,1010.6
2017-11-01T01:18:40.880Z,1010.6
2017-11-01T01:19:43.274Z,1010.6
2017-11-01T01:20:45.640Z,1010.6
2017-11-01T01:21:48.359Z,1010.6
2017-11-01T01:22:50.746Z,1010.6
2017-11-01T01:23:53.125Z,1010.6
2017-11-01T01:24:55.512Z,1010.6
2017-11-01T01:25:57.886Z,1010.6
2017-11-01T01:27:00.260Z,1010.6
2017-11-01T01:28:02.978Z,1010.6
2017-11-01T01:29:05.381Z,1010.6
2017-11-01T01:30:07.768Z,1010.5
2017-11-01T01:31:10.132Z,1010.6
2017-11-01T01:32:12.511Z,1010.6
2017-11-01T01:33:14.885Z,1010.6
2017-11-01T01:34:17.614Z,1010.6
2017-11-01T01:35:19.996Z,1010.6
2017-11-01T01:36:22.366Z,1010.6
2017-11-01T01:37:25.101Z,1010.6
2017-11-01T01:38:27.483Z,1010.5
2017-11-01T01:39:29.866Z,1010.5
2017-11-01T01:40:32.257Z,1010.6
2017-11-01T01:41:34.622Z,1010.5
2017-11-01T01:42:37.347Z,1010.5
2017-11-01T01:43:39.730Z,1010.5
2017-11-01T01:44:42.120Z,1010.5
2017-11-01T01:45:44.484Z,1010.6
2017-11-01T01:46:46.865Z,1010.6
2017-11-01T01:47:49.255Z,1010.5
2017-11-01T01:48:52.728Z,1010.5
2017-11-01T01:49:55.091Z,1010.5
2017-11-01T01:50:57.481Z,1010.5
2017-11-01T01:51:59.861Z,1010.5
2017-11-01T01:53:02.245Z,1010.5
2017-11-01T01:54:04.680Z,1010.5
2017-11-01T01:55:07.038Z,1010.5
2017-11-01T01:56:09.413Z,1010.5
2017-11-01T01:57:11.794Z,1010.5
2017-11-01T01:58:14.167Z,1010.4
2017-11-01T01:59:16.543Z,1010.5
2017-11-01T02:00:18.916Z,1010.5
2017-11-01T02:01:21.293Z,1010.5
2017-11-01T02:02:24.028Z,1010.4
2017-11-01T02:03:26.395Z,1010.4
2017-11-01T02:04:28.771Z,1010.5
2017-11-01T02:05:31.149Z,1010.5
2017-11-01T02:06:33.516Z,1010.5
2017-11-01T02:07:35.897Z,1010.5
2017-11-01T02:08:38.271Z,1010.5
2017-11-01T02:09:40.641Z,1010.5
2017-11-01T02:10:43.033Z,1010.4
2017-11-01T02:11:45.407Z,1010.4
2017-11-01T02:12:47.781Z,1010.3
2017-11-01T02:13:50.519Z,1010.4
2017-11-01T02:14:52.898Z,1010.4
2017-11-01T02:15:55.262Z,1010.3
2017-11-01T02:16:57.643Z,1010.3
2017-11-01T02:18:00.004Z,1010.3
2017-11-01T02:19:02.741Z,1010.3
2017-11-01T02:20:05.114Z,1010.3
2017-11-01T02:21:07.497Z,1010.4
2017-11-01T02:22:09.873Z,1010.3
2017-11-01T02:23:12.244Z,1010.3
2017-11-01T02:24:14.635Z,1010.3
2017-11-01T02:25:17.011Z,1010.3
2017-11-01T02:26:19.393Z,1010.3
2017-11-01T02:27:22.134Z,1010.3
2017-11-01T02:28:24.510Z,1010.3
2017-11-01T02:29:27.232Z,1010.3
2017-11-01T02:30:29.613Z,1010.3
2017-11-01T02:31:31.978Z,1010.3
2017-11-01T02:32:34.707Z,1010.3
2017-11-01T02:33:37.102Z,1010.3
2017-11-01T02:34:39.468Z,1010.3
2017-11-01T02:35:41.838Z,1010.2
2017-11-01T02:36:44.213Z,1010.2
2017-11-01T02:37:46.576Z,1010.2
2017-11-01T02:38:48.986Z,1010.2
2017-11-01T02:39:51.365Z,1010.2
2017-11-01T02:40:53.730Z,1010.2
2017-11-01T02:41:56.133Z,1010.2
2017-11-01T02:42:58.488Z,1010.1
2017-11-01T02:44:00.866Z,1010.1
2017-11-01T02:45:03.596Z,1010.1
2017-11-01T02:46:06.316Z,1010.1
2017-11-01T02:47:08.694Z,1010.1
2017-11-01T02:48:11.070Z,1010
2017-11-01T02:49:13.788Z,1010.1
2017-11-01T02:50:16.530Z,1010.1
2017-11-01T02:51:18.902Z,1010
2017-11-01T02:52:21.636Z,1010.1
2017-11-01T02:53:24.001Z,1010.1
2017-11-01T02:54:26.394Z,1010
2017-11-01T02:55:28.762Z,1010
2017-11-01T02:56:31.146Z,1010.1
2017-11-01T02:57:33.537Z,1010
2017-11-01T02:58:35.928Z,1010.1
2017-11-01T02:59:38.661Z,1010
2017-11-01T03:00:41.033Z,1010
2017-11-01T03:01:43.450Z,1010
2017-11-01T03:02:45.822Z,1010
2017-11-01T03:03:48.204Z,1010
2017-11-01T03:04:50.574Z,1009.9
2017-11-01T03:05:52.959Z,1010
2017-11-01T03:06:55.325Z,1010
2017-11-01T03:07:57.773Z,1009.9
2017-11-01T03:09:00.134Z,1009.9
2017-11-01T03:10:02.504Z,1009.9
2017-11-01T03:11:04.887Z,1009.9
2017-11-01T03:12:07.257Z,1009.9
2017-11-01T03:13:09.628Z,1009.8
2017-11-01T03:14:12.016Z,1009.9
2017-11-01T03:15:14.390Z,1009.9
2017-11-01T03:16:16.761Z,1009.8
2017-11-01T03:17:19.141Z,1009.8
2017-11-01T03:18:21.519Z,1009.8
2017-11-01T03:19:24.249Z,1009.8
2017-11-01T03:20:26.615Z,1009.8
2017-11-01T03:21:28.998Z,1009.7
2017-11-01T03:22:31.734Z,1009.7
2017-11-01T03:23:34.131Z,1009.7
2017-11-01T03:24:36.513Z,1009.7
2017-11-01T03:25:38.893Z,1009.7
2017-11-01T03:26:41.275Z,1009.7
2017-11-01T03:27:43.652Z,1009.7
2017-11-01T03:28:46.031Z,1009.7
2017-11-01T03:29:48.406Z,1009.7
2017-11-01T03:30:50.784Z,1009.7
2017-11-01T03:31:53.163Z,1009.7
2017-11-01T03:32:55.576Z,1009.6
2017-11-01T03:33:57.927Z,1009.6
2017-11-01T03:35:00.299Z,1009.6
2017-11-01T03:36:02.687Z,1009.6
2017-11-01T03:37:05.058Z,1009.5
2017-11-01T03:38:07.456Z,1009.5
2017-11-01T03:39:10.206Z,1009.6
2017-11-01T03:40:12.540Z,1009.5
2017-11-01T03:41:14.938Z,1009.5
2017-11-01T03:42:17.293Z,1009.5
2017-11-01T03:43:19.690Z,1009.5
2017-11-01T03:44:22.068Z,1009.5
2017-11-01T03:45:24.461Z,1009.5
2017-11-01T03:46:26.838Z,1009.4
2017-11-01T03:47:29.211Z,1009.5
2017-11-01T03:48:31.587Z,1009.5
2017-11-01T03:49:33.972Z,1009.5
2017-11-01T03:50:36.352Z,1009.5
2017-11-01T03:51:38.725Z,1009.4
2017-11-01T03:52:41.114Z,1009.4
2017-11-01T03:53:43.850Z,1009.5
2017-11-01T03:54:46.578Z,1009.4
2017-11-01T03:55:48.965Z,1009.4
2017-11-01T03:56:51.324Z,1009.3
2017-11-01T03:57:54.067Z,1009.4
2017-11-01T03:58:56.465Z,1009.4
2017-11-01T03:59:58.824Z,1009.4
2017-11-01T04:01:01.557Z,1009.4
2017-11-01T04:02:03.930Z,1009.3
2017-11-01T04:03:06.323Z,1009.4
2017-11-01T04:04:08.695Z,1009.4
2017-11-01T04:05:11.075Z,1009.4
2017-11-01T04:06:13.447Z,1009.4
2017-11-01T04:07:15.864Z,1009.4
2017-11-01T04:08:18.234Z,1009.4
2017-11-01T04:09:20.618Z,1009.5
2017-11-01T04:10:23.007Z,1009.5
2017-11-01T04:11:25.383Z,1009.5
2017-11-01T04:12:27.775Z,1009.5
2017-11-01T04:13:30.502Z,1009.5
2017-11-01T04:14:32.875Z,1009.4
2017-11-01T04:15:35.620Z,1009.3
2017-11-01T04:16:37.976Z,1009.3
2017-11-01T04:17:40.356Z,1009.3
2017-11-01T04:18:42.722Z,1009.4
2017-11-01T04:19:45.094Z,1009.3
2017-11-01T04:20:47.487Z,1009.4
2017-11-01T04:21:49.871Z,1009.4
2017-11-01T04:22:52.264Z,1009.4
2017-11-01T04:23:54.651Z,1009.3
2017-11-01T04:24:57.020Z,1009.3
2017-11-01T04:25:59.405Z,1009.3
2017-11-01T04:27:02.130Z,1009.3
2017-11-01T04:28:04.494Z,1009.3
2017-11-01T04:29:06.876Z,1009.3
2017-11-01T04:30:09.239Z,1009.2
2017-11-01T04:31:11.608Z,1009.3
2017-11-01T04:32:14.004Z,1009.3
2017-11-01T04:33:16.385Z,1009.2
2017-11-01T04:34:19.104Z,1009.3
2017-11-01T04:35:21.482Z,1009.2
2017-11-01T04:36:23.855Z,1009.3
2017-11-01T04:37:26.232Z,1009.3
2017-11-01T04:38:28.621Z,1009.3
2017-11-01T04:39:31.339Z,1009.3
2017-11-01T04:40:33.703Z,1009.3
2017-11-01T04:41:36.440Z,1009.2
2017-11-01T04:42:38.811Z,1009.3
2017-11-01T04:43:41.177Z,1009.2
2017-11-01T04:44:43.555Z,1009.3
2017-11-01T04:45:45.931Z,1009.3
2017-11-01T04:46:48.676Z,1009.3
2017-11-01T04:47:51.060Z,1009.2
2017-11-01T04:48:53.816Z,1009.2
2017-11-01T04:49:56.187Z,1009.2
2017-11-01T04:50:58.564Z,1009.2
2017-11-01T04:52:00.946Z,1009.2
2017-11-01T04:53:03.319Z,1009.2
2017-11-01T04:54:05.689Z,1009.2
2017-11-01T04:55:08.097Z,1009.2
2017-11-01T04:56:10.467Z,1009.2
2017-11-01T04:57:12.845Z,1009.2
2017-11-01T04:58:15.215Z,1009.2
2017-11-01T04:59:17.976Z,1009.2
2017-11-01T05:00:20.700Z,1009.1
2017-11-01T05:01:23.438Z,1009.2
2017-11-01T05:02:25.817Z,1009.2
2017-11-01T05:03:28.196Z,1009.1
2017-11-01T05:04:30.568Z,1009.1
2017-11-01T05:05:32.948Z,1009.1
2017-11-01T05:06:35.323Z,1009
2017-11-01T05:07:37.711Z,1009.1
2017-11-01T05:08:40.086Z,1009.1
2017-11-01T05:09:42.472Z,1009.1
2017-11-01T05:10:45.201Z,1009.1
2017-11-01T05:11:47.578Z,1009.1
2017-11-01T05:12:49.950Z,1009.1
2017-11-01T05:13:52.342Z,1009.1
2017-11-01T05:14:55.061Z,1009.1
2017-11-01T05:15:57.425Z,1009
2017-11-01T05:16:59.808Z,1009
2017-11-01T05:18:02.195Z,1009
2017-11-01T05:19:04.573Z,1009.1
2017-11-01T05:20:06.945Z,1009
2017-11-01T05:21:09.334Z,1009.1
2017-11-01T05:22:11.706Z,1009.1
2017-11-01T05:23:14.436Z,1009.1
2017-11-01T05:24:17.175Z,1009.1
2017-11-01T05:25:19.544Z,1009
2017-11-01T05:26:21.915Z,1009.1
2017-11-01T05:27:24.311Z,1009.1
2017-11-01T05:28:26.673Z,1009.1
2017-11-01T05:29:29.064Z,1009.1
2017-11-01T05:30:31.440Z,1009
2017-11-01T05:31:34.159Z,1009.1
2017-11-01T05:32:36.536Z,1009.1
2017-11-01T05:33:38.914Z,1009.1
2017-11-01T05:34:41.292Z,1009.1
2017-11-01T05:35:43.678Z,1009.1
2017-11-01T05:36:46.057Z,1009.1
2017-11-01T05:37:48.442Z,1009
2017-11-01T05:38:51.238Z,1009.1
2017-11-01T05:39:53.613Z,1009
2017-11-01T05:40:55.988Z,1009.1
2017-11-01T05:41:58.721Z,1009.1
2017-11-01T05:43:01.093Z,1009.1
2017-11-01T05:44:03.876Z,1009
2017-11-01T05:45:06.258Z,1009.1
2017-11-01T05:46:08.650Z,1009.1
2017-11-01T05:47:11.025Z,1009.1
2017-11-01T05:48:13.400Z,1009.1
2017-11-01T05:49:15.785Z,1009
2017-11-01T05:50:18.157Z,1009
2017-11-01T05:51:20.537Z,1009.1
2017-11-01T05:52:22.902Z,1009
2017-11-01T05:53:25.266Z,1009
2017-11-01T05:54:27.638Z,1009.1
2017-11-01T05:55:30.018Z,1009.1
2017-11-01T05:56:32.397Z,1009.1
2017-11-01T05:57:34.782Z,1009.1
2017-11-01T05:58:37.163Z,1009
2017-11-01T05:59:39.541Z,1009
2017-11-01T06:00:41.941Z,1009.1
2017-11-01T06:01:44.323Z,1009.1
2017-11-01T06:02:46.687Z,1009.1
2017-11-01T06:03:49.068Z,1009.2
2017-11-01T06:04:51.463Z,1009.1
2017-11-01T06:05:54.177Z,1009.1
2017-11-01T06:06:56.555Z,1009.1
2017-11-01T06:07:59.284Z,1009.1
2017-11-01T06:09:01.663Z,1009.1
2017-11-01T06:10:04.036Z,1009.1
2017-11-01T06:11:06.416Z,1009.1
2017-11-01T06:12:09.129Z,1009.1
2017-11-01T06:13:11.548Z,1009.1
2017-11-01T06:14:13.901Z,1009.1
2017-11-01T06:15:16.271Z,1009.1
2017-11-01T06:16:18.996Z,1009.1
2017-11-01T06:17:21.388Z,1009
2017-11-01T06:18:24.131Z,1009
2017-11-01T06:19:26.503Z,1009
2017-11-01T06:20:28.884Z,1009.1
2017-11-01T06:21:31.258Z,1009.1
2017-11-01T06:22:33.688Z,1009.1
2017-11-01T06:23:36.445Z,1009.1
2017-11-01T06:24:38.815Z,1009.1
2017-11-01T06:25:41.194Z,1009.1
2017-11-01T06:26:43.947Z,1009
2017-11-01T06:27:46.665Z,1009.1
2017-11-01T06:28:49.042Z,1009.1
2017-11-01T06:29:51.771Z,1009
2017-11-01T06:30:54.504Z,1009
2017-11-01T06:31:56.876Z,1009
2017-11-01T06:32:59.252Z,1009
2017-11-01T06:34:01.624Z,1009
2017-11-01T06:35:04.000Z,1009
2017-11-01T06:36:06.373Z,1009.1
2017-11-01T06:37:08.747Z,1009.1
2017-11-01T06:38:11.125Z,1009.1
2017-11-01T06:39:13.501Z,1009.1
2017-11-01T06:40:15.879Z,1009.1
2017-11-01T06:41:18.252Z,1009.1
2017-11-01T06:42:20.633Z,1009.2
2017-11-01T06:43:23.000Z,1009.1
2017-11-01T06:44:25.742Z,1009.2
2017-11-01T06:45:28.137Z,1009.2
2017-11-01T06:46:30.510Z,1009.2
2017-11-01T06:47:32.888Z,1009.2
2017-11-01T06:48:35.272Z,1009.2
2017-11-01T06:49:37.647Z,1009.2
2017-11-01T06:50:40.027Z,1009.2
2017-11-01T06:51:42.422Z,1009.3
2017-11-01T06:52:44.783Z,1009.2
2017-11-01T06:53:47.155Z,1009.2
2017-11-01T06:54:49.533Z,1009.2
2017-11-01T06:55:51.906Z,1009.2
2017-11-01T06:56:54.657Z,1009.2
2017-11-01T06:57:57.047Z,1009.3
2017-11-01T06:58:59.796Z,1009.2
2017-11-01T07:00:02.172Z,1009.2
2017-11-01T07:01:04.893Z,1009.2
2017-11-01T07:02:07.270Z,1009.2
2017-11-01T07:03:09.635Z,1009.3
2017-11-01T07:04:12.019Z,1009.3
2017-11-01T07:05:14.758Z,1009.3
2017-11-01T07:06:17.132Z,1009.3
2017-11-01T07:07:19.512Z,1009.2
2017-11-01T07:08:21.915Z,1009.2
2017-11-01T07:09:24.253Z,1009.3
2017-11-01T07:10:26.637Z,1009.2
2017-11-01T07:11:29.011Z,1009.2
2017-11-01T07:12:31.409Z,1009.2
2017-11-01T07:13:33.782Z,1009.2
2017-11-01T07:14:36.164Z,1009.3
2017-11-01T07:15:38.537Z,1009.3
2017-11-01T07:16:40.937Z,1009.3
2017-11-01T07:17:43.307Z,1009.3
2017-11-01T07:18:45.691Z,1009.3
2017-11-01T07:19:48.061Z,1009.3
2017-11-01T07:20:50.836Z,1009.3
2017-11-01T07:21:53.211Z,1009.3
2017-11-01T07:22:55.588Z,1009.3
2017-11-01T07:23:58.327Z,1009.3
2017-11-01T07:25:00.709Z,1009.3
2017-11-01T07:26:03.089Z,1009.3
2017-11-01T07:27:05.460Z,1009.3
2017-11-01T07:28:07.851Z,1009.3
2017-11-01T07:29:10.227Z,1009.3
2017-11-01T07:30:12.607Z,1009.3
2017-11-01T07:31:14.978Z,1009.3
2017-11-01T07:32:17.700Z,1009.3
2017-11-01T07:33:20.080Z,1009.3
2017-11-01T07:34:22.465Z,1009.3
2017-11-01T07:35:24.830Z,1009.2
2017-11-01T07:36:27.198Z,1009.2
2017-11-01T07:37:29.935Z,1009.3
2017-11-01T07:38:32.661Z,1009.2
2017-11-01T07:39:35.389Z,1009.3
2017-11-01T07:40:37.769Z,1009.3
2017-11-01T07:41:40.504Z,1009.3
2017-11-01T07:42:42.885Z,1009.3
2017-11-01T07:43:45.259Z,1009.3
2017-11-01T07:44:47.637Z,1009.3
2017-11-01T07:45:50.014Z,1009.3
2017-11-01T07:46:52.399Z,1009.3
2017-11-01T07:47:54.777Z,1009.3
2017-11-01T07:48:57.149Z,1009.3
2017-11-01T07:49:59.523Z,1009.3
2017-11-01T07:51:02.262Z,1009.3
2017-11-01T07:52:04.636Z,1009.3
2017-11-01T07:53:07.014Z,1009.3
2017-11-01T07:54:09.382Z,1009.4
2017-11-01T07:55:11.760Z,1009.3
2017-11-01T07:56:14.145Z,1009.3
2017-11-01T07:57:16.533Z,1009.3
2017-11-01T07:58:18.908Z,1009.3
2017-11-01T07:59:21.636Z,1009.4
2017-11-01T08:00:24.011Z,1009.4
2017-11-01T08:01:26.369Z,1009.4
2017-11-01T08:02:28.749Z,1009.4
2017-11-01T08:03:31.144Z,1009.4
2017-11-01T08:04:33.514Z,1009.4
2017-11-01T08:05:35.882Z,1009.4
2017-11-01T08:06:38.263Z,1009.3
2017-11-01T08:07:40.649Z,1009.4
2017-11-01T08:08:43.404Z,1009.4
2017-11-01T08:09:45.786Z,1009.4
2017-11-01T08:10:48.156Z,1009.5
2017-11-01T08:11:50.895Z,1009.4
2017-11-01T08:12:53.278Z,1009.4
2017-11-01T08:13:55.650Z,1009.4
2017-11-01T08:14:58.041Z,1009.4
2017-11-01T08:16:00.670Z,1009.5
2017-11-01T08:17:03.682Z,1009.3
2017-11-01T08:18:06.088Z,1009.3
2017-11-01T08:19:08.479Z,1009.3
2017-11-01T08:20:10.924Z,1009.4
2017-11-01T08:21:13.289Z,1009.4
2017-11-01T08:22:15.713Z,1009.4
2017-11-01T08:23:18.101Z,1009.4
2017-11-01T08:24:20.845Z,1009.5
2017-11-01T08:25:23.491Z,1009.5
2017-11-01T08:26:25.906Z,1009.4
2017-11-01T08:27:28.355Z,1009.5
2017-11-01T08:28:31.288Z,1009.4
2017-11-01T08:29:34.099Z,1009.4
2017-11-01T08:30:37.127Z,1009.4
2017-11-01T08:31:39.569Z,1009.4
2017-11-01T08:32:41.990Z,1009.4
2017-11-01T08:33:44.524Z,1009.4
2017-11-01T08:34:47.513Z,1009.4
2017-11-01T08:35:49.941Z,1009.4
2017-11-01T08:36:52.685Z,1009.4
2017-11-01T08:37:55.097Z,1009.3
2017-11-01T08:38:58.114Z,1009.4
2017-11-01T08:40:00.844Z,1009.4
2017-11-01T08:41:03.230Z,1009.4
2017-11-01T08:42:05.622Z,1009.4
2017-11-01T08:43:08.061Z,1009.4
2017-11-01T08:44:10.470Z,1009.3
2017-11-01T08:45:13.074Z,1009.4
2017-11-01T08:46:15.852Z,1009.4
2017-11-01T08:47:18.589Z,1009.3
2017-11-01T08:48:21.020Z,1009.4
2017-11-01T08:49:23.407Z,1009.4
2017-11-01T08:50:26.142Z,1009.3
2017-11-01T08:51:29.348Z,1009.4
2017-11-01T08:52:31.728Z,1009.4
2017-11-01T08:53:34.122Z,1009.4
2017-11-01T08:54:36.569Z,1009.4
2017-11-01T08:55:38.964Z,1009.4
2017-11-01T08:56:41.358Z,1009.4
2017-11-01T08:57:43.735Z,1009.4
2017-11-01T08:58:46.104Z,1009.4
2017-11-01T08:59:48.833Z,1009.4
2017-11-01T09:00:51.318Z,1009.4
2017-11-01T09:01:53.746Z,1009.4
2017-11-01T09:02:56.124Z,1009.4
2017-11-01T09:03:58.502Z,1009.4
2017-11-01T09:05:00.891Z,1009.4
2017-11-01T09:06:03.288Z,1009.4
2017-11-01T09:07:05.690Z,1009.4
2017-11-01T09:08:08.067Z,1009.4
2017-11-01T09:09:10.856Z,1009.5
2017-11-01T09:10:13.375Z,1009.4
2017-11-01T09:11:16.110Z,1009.5
2017-11-01T09:12:18.490Z,1009.5
2017-11-01T09:13:20.890Z,1009.5
2017-11-01T09:14:23.270Z,1009.5
2017-11-01T09:15:25.994Z,1009.4
2017-11-01T09:16:28.369Z,1009.5
2017-11-01T09:17:30.748Z,1009.4
2017-11-01T09:18:33.149Z,1009.5
2017-11-01T09:19:35.534Z,1009.5
2017-11-01T09:20:37.916Z,1009.4
2017-11-01T09:21:40.304Z,1009.4
2017-11-01T09:22:42.675Z,1009.4
2017-11-01T09:23:45.069Z,1009.3
2017-11-01T09:24:47.441Z,1009.4
2017-11-01T09:25:49.819Z,1009.4
2017-11-01T09:26:52.190Z,1009.4
2017-11-01T09:27:54.580Z,1009.4
2017-11-01T09:28:56.949Z,1009.4
2017-11-01T09:29:59.332Z,1009.4
2017-11-01T09:31:01.704Z,1009.4
2017-11-01T09:32:04.090Z,1009.4
2017-11-01T09:33:06.458Z,1009.4
2017-11-01T09:34:08.843Z,1009.4
2017-11-01T09:35:11.211Z,1009.4
2017-11-01T09:36:13.958Z,1009.4
2017-11-01T09:37:16.329Z,1009.4
2017-11-01T09:38:18.714Z,1009.4
2017-11-01T09:39:21.089Z,1009.3
2017-11-01T09:40:23.471Z,1009.4
2017-11-01T09:41:25.849Z,1009.3
2017-11-01T09:42:28.233Z,1009.3
2017-11-01T09:43:30.668Z,1009.3
2017-11-01T09:44:33.068Z,1009.3
2017-11-01T09:45:35.457Z,1009.3
2017-11-01T09:46:37.815Z,1009.4
2017-11-01T09:47:40.211Z,1009.3
2017-11-01T09:48:42.596Z,1009.3
2017-11-01T09:49:44.984Z,1009.4
2017-11-01T09:50:47.349Z,1009.3
2017-11-01T09:51:49.722Z,1009.3
2017-11-01T09:52:52.095Z,1009.3
2017-11-01T09:53:54.483Z,1009.4
2017-11-01T09:54:56.860Z,1009.4
2017-11-01T09:55:59.243Z,1009.4
2017-11-01T09:57:01.620Z,1009.4
2017-11-01T09:58:04.016Z,1009.4
2017-11-01T09:59:06.401Z,1009.4
2017-11-01T10:00:08.823Z,1009.4
2017-11-01T10:01:11.197Z,1009.3
2017-11-01T10:02:13.581Z,1009.4
2017-11-01T10:03:15.957Z,1009.4
2017-11-01T10:04:18.346Z,1009.4
2017-11-01T10:05:20.726Z,1009.3
2017-11-01T10:06:23.104Z,1009.3
2017-11-01T10:07:25.494Z,1009.3
2017-11-01T10:08:27.885Z,1009.3
2017-11-01T10:09:30.260Z,1009.3
2017-11-01T10:10:32.994Z,1009.3
2017-11-01T10:11:35.367Z,1009.3
2017-11-01T10:12:38.112Z,1009.4
2017-11-01T10:13:40.491Z,1009.3
2017-11-01T10:14:42.870Z,1009.4
2017-11-01T10:15:45.251Z,1009.4
2017-11-01T10:16:47.619Z,1009.4
2017-11-01T10:17:49.996Z,1009.4
2017-11-01T10:18:52.375Z,1009.4
2017-11-01T10:19:54.793Z,1009.4
2017-11-01T10:20:57.164Z,1009.4
2017-11-01T10:21:59.546Z,1009.4
2017-11-01T10:23:02.273Z,1009.4
2017-11-01T10:24:04.649Z,1009.4
2017-11-01T10:25:07.028Z,1009.4
2017-11-01T10:26:09.407Z,1009.4
2017-11-01T10:27:11.792Z,1009.5
2017-11-01T10:28:14.180Z,1009.5
2017-11-01T10:29:16.902Z,1009.5
2017-11-01T10:30:19.286Z,1009.5
2017-11-01T10:31:22.376Z,1009.5
2017-11-01T10:32:25.098Z,1009.4
2017-11-01T10:33:27.465Z,1009.4
2017-11-01T10:34:29.844Z,1009.5
2017-11-01T10:35:32.222Z,1009.5
2017-11-01T10:36:35.046Z,1009.5
2017-11-01T10:37:37.786Z,1009.4
2017-11-01T10:38:40.148Z,1009.5
2017-11-01T10:39:42.530Z,1009.5
2017-11-01T10:40:44.920Z,1009.4
2017-11-01T10:41:47.289Z,1009.5
2017-11-01T10:42:49.673Z,1009.5
2017-11-01T10:43:52.049Z,1009.3
2017-11-01T10:44:54.422Z,1009.4
2017-11-01T10:45:56.789Z,1009.3
2017-11-01T10:46:59.176Z,1009.4
2017-11-01T10:48:01.544Z,1009.4
2017-11-01T10:49:04.284Z,1009.4
2017-11-01T10:50:06.666Z,1009.2
2017-11-01T10:51:09.037Z,1009.3
2017-11-01T10:52:11.430Z,1009.3
2017-11-01T10:53:14.168Z,1009.3
2017-11-01T10:54:16.532Z,1009.3
2017-11-01T10:55:18.911Z,1009.3
2017-11-01T10:56:21.294Z,1009.3
2017-11-01T10:57:23.674Z,1009.3
2017-11-01T10:58:26.059Z,1009.2
2017-11-01T10:59:28.452Z,1009.2
2017-11-01T11:00:31.174Z,1009.2
2017-11-01T11:01:33.566Z,1009.2
2017-11-01T11:02:35.930Z,1009.2
2017-11-01T11:03:38.313Z,1009.2
2017-11-01T11:04:40.688Z,1009.1
2017-11-01T11:05:44.034Z,1009.2
2017-11-01T11:06:52.965Z,1009.2
2017-11-01T11:08:02.624Z,1009.1
2017-11-01T11:09:14.927Z,1009.1
2017-11-01T11:10:28.074Z,1009.1
2017-11-01T11:11:40.150Z,1009
2017-11-01T11:12:52.047Z,1009
2017-11-01T11:14:03.574Z,1009
2017-11-01T11:15:05.939Z,1009
2017-11-01T11:16:08.321Z,1008.9
2017-11-01T11:17:10.694Z,1008.9
2017-11-01T11:18:13.421Z,1008.8
2017-11-01T11:19:15.803Z,1008.9
2017-11-01T11:20:18.177Z,1008.9
2017-11-01T11:21:20.550Z,1009
2017-11-01T11:22:22.938Z,1009
2017-11-01T11:23:25.312Z,1008.9
2017-11-01T11:24:27.685Z,1009
2017-11-01T11:25:30.408Z,1009
2017-11-01T11:26:32.786Z,1008.9
2017-11-01T11:27:35.175Z,1008.9
2017-11-01T11:28:37.559Z,1008.9
2017-11-01T11:29:39.930Z,1009
2017-11-01T11:30:42.311Z,1009
2017-11-01T11:31:44.712Z,1008.9
2017-11-01T11:32:47.792Z,1008.9
2017-11-01T11:33:50.169Z,1008.9
2017-11-01T11:34:52.887Z,1008.9
2017-11-01T11:35:55.257Z,1008.9
2017-11-01T11:36:57.647Z,1008.9
2017-11-01T11:38:00.025Z,1008.9
2017-11-01T11:39:02.404Z,1008.9
2017-11-01T11:40:05.128Z,1008.8
2017-11-01T11:41:07.504Z,1008.8
2017-11-01T11:42:10.238Z,1008.8
2017-11-01T11:43:12.617Z,1008.8
2017-11-01T11:44:15.345Z,1008.8
2017-11-01T11:45:17.726Z,1008.7
2017-11-01T11:46:20.457Z,1008.8
2017-11-01T11:47:22.861Z,1008.7
2017-11-01T11:48:25.248Z,1008.7
2017-11-01T11:49:27.624Z,1008.7
2017-11-01T11:50:30.007Z,1008.8
2017-11-01T11:51:32.731Z,1008.9
2017-11-01T11:52:35.108Z,1008.8
2017-11-01T11:53:37.482Z,1008.8
2017-11-01T11:54:39.859Z,1008.8
2017-11-01T11:55:42.252Z,1008.8
2017-11-01T11:56:44.635Z,1008.8
2017-11-01T11:57:47.385Z,1008.8
2017-11-01T11:58:49.760Z,1008.9
2017-11-01T11:59:52.143Z,1008.8
2017-11-01T12:00:54.519Z,1008.8
2017-11-01T12:01:56.902Z,1008.8
2017-11-01T12:02:59.282Z,1008.9
2017-11-01T12:04:01.666Z,1008.8
2017-11-01T12:05:04.041Z,1008.8
2017-11-01T12:06:06.435Z,1008.8
2017-11-01T12:07:08.816Z,1008.8
2017-11-01T12:08:11.194Z,1008.8
2017-11-01T12:09:13.575Z,1008.8
2017-11-01T12:10:15.940Z,1008.8
2017-11-01T12:11:18.322Z,1008.8
2017-11-01T12:12:20.720Z,1008.8
2017-11-01T12:13:23.102Z,1008.7
2017-11-01T12:14:25.488Z,1008.8
2017-11-01T12:15:27.880Z,1008.8
2017-11-01T12:16:30.255Z,1008.7
2017-11-01T12:17:32.653Z,1008.7
2017-11-01T12:18:35.026Z,1008.7
2017-11-01T12:19:37.741Z,1008.7
2017-11-01T12:20:40.125Z,1008.7
2017-11-01T12:21:42.502Z,1008.8
2017-11-01T12:22:44.875Z,1008.8
2017-11-01T12:23:47.256Z,1008.7
2017-11-01T12:24:49.623Z,1008.7
2017-11-01T12:25:52.000Z,1008.7
2017-11-01T12:26:54.391Z,1008.7
2017-11-01T12:27:56.758Z,1008.7
2017-11-01T12:28:59.138Z,1008.7
2017-11-01T12:30:01.518Z,1008.6
2017-11-01T12:31:03.899Z,1008.6
2017-11-01T12:32:06.290Z,1008.6
2017-11-01T12:33:08.671Z,1008.6
2017-11-01T12:34:11.037Z,1008.6
2017-11-01T12:35:13.442Z,1008.7
2017-11-01T12:36:16.180Z,1008.7
2017-11-01T12:37:18.555Z,1008.7
2017-11-01T12:38:20.938Z,1008.6
2017-11-01T12:39:23.323Z,1008.6
2017-11-01T12:40:26.052Z,1008.6
2017-11-01T12:41:28.440Z,1008.6
2017-11-01T12:42:30.821Z,1008.6
2017-11-01T12:43:33.196Z,1008.7
2017-11-01T12:44:35.925Z,1008.7
2017-11-01T12:45:38.315Z,1008.7
2017-11-01T12:46:40.690Z,1008.7
2017-11-01T12:47:43.061Z,1008.7
2017-11-01T12:48:45.442Z,1008.6
2017-11-01T12:49:47.826Z,1008.6
2017-11-01T12:50:50.556Z,1008.6
2017-11-01T12:51:52.939Z,1008.6
2017-11-01T12:52:55.306Z,1008.6
2017-11-01T12:53:57.690Z,1008.7
2017-11-01T12:55:00.066Z,1008.6
2017-11-01T12:56:02.451Z,1008.6
2017-11-01T12:57:04.826Z,1008.5
2017-11-01T12:58:07.193Z,1008.7
2017-11-01T12:59:09.569Z,1008.6
2017-11-01T13:00:11.963Z,1008.6
2017-11-01T13:01:14.341Z,1008.6
2017-11-01T13:02:16.720Z,1008.6
2017-11-01T13:03:19.100Z,1008.7
2017-11-01T13:04:21.485Z,1008.7
2017-11-01T13:05:23.865Z,1008.5
2017-11-01T13:06:26.244Z,1008.6
2017-11-01T13:07:28.615Z,1008.7
2017-11-01T13:08:30.988Z,1008.7